Terminal Aerodrome Forecast
Issued by NWS Bismarck, ND

Home | Current Version | Previous Version | Graphics & Text | Print | Product List | Glossary On
Versions: 1 2 3 4 5 6 7 8 9 10 11 12 13 14 15 16 17 18
000
FTUS43 KBIS 260300 AAA
TAFBIS
TAF AMD
KBIS 260318Z 2603/2624 33011KT P6SM OVC025
     FM261300 33012KT P6SM SCT025 BKN035
     FM261500 33006KT P6SM SCT035 BKN100=

USA.gov is the U.S. government's official web portal to all federal, state and local government web resources and services.